N728FP KMCO-KIAD
Flight info
| Callsign | N728FP |
|---|---|
| Flight time | 1h 46m |
| Altitude | 37000 |
| Route | FATHE4 VIYAP Q87 ALWZZ DCT OGRAE DCT BZNGA DCT DORRN CAVLR6 |
| Aircraft | B738/M-SDE1E2E3GHIRWXYZ/LB1 |
Departure
| Time | 2026-04-25 14:47 |
|---|---|
| Airport | Orlando International Airport (KMCO) |
Arrival
| Time | 2026-04-25 16:34 |
|---|---|
| Airport | Washington Dulles International Airport (KIAD) |
| Time | Latitude | Longitude | Altitude | Speed | Heading |
|---|---|---|---|---|---|
| 2026-04-25 13:56 | 28.42297 | -81.32991 | 95 ft | 0 kts | 360° |
| 2026-04-25 14:39 | 28.42302 | -81.32991 | 94 ft | 2 kts | 1° |
| 2026-04-25 14:39 | 28.42344 | -81.32968 | 94 ft | 11 kts | 33° |
| 2026-04-25 14:39 | 28.42441 | -81.32918 | 94 ft | 19 kts | 8° |
| 2026-04-25 14:40 | 28.42586 | -81.32918 | 94 ft | 20 kts | 359° |
| 2026-04-25 14:40 | 28.42729 | -81.32919 | 94 ft | 19 kts | 360° |
| 2026-04-25 14:40 | 28.42864 | -81.32922 | 94 ft | 18 kts | 359° |
| 2026-04-25 14:40 | 28.42993 | -81.32922 | 94 ft | 17 kts | 0° |
| 2026-04-25 14:41 | 28.43115 | -81.32924 | 94 ft | 17 kts | 359° |
| 2026-04-25 14:41 | 28.43236 | -81.32925 | 94 ft | 18 kts | 359° |
| 2026-04-25 14:41 | 28.43382 | -81.32926 | 93 ft | 21 kts | 359° |
| 2026-04-25 14:41 | 28.43533 | -81.32929 | 93 ft | 21 kts | 360° |
| 2026-04-25 14:42 | 28.43678 | -81.32930 | 91 ft | 20 kts | 359° |
| 2026-04-25 14:42 | 28.43727 | -81.32931 | 91 ft | 20 kts | 359° |
| 2026-04-25 14:42 | 28.43951 | -81.32931 | 91 ft | 16 kts | 13° |
| 2026-04-25 14:42 | 28.44055 | -81.32872 | 91 ft | 18 kts | 21° |
| 2026-04-25 14:43 | 28.44177 | -81.32862 | 91 ft | 17 kts | 359° |
| 2026-04-25 14:43 | 28.44303 | -81.32864 | 91 ft | 20 kts | 360° |
| 2026-04-25 14:43 | 28.44441 | -81.32864 | 91 ft | 19 kts | 360° |
| 2026-04-25 14:43 | 28.44547 | -81.32867 | 91 ft | 13 kts | 359° |
| 2026-04-25 14:44 | 28.44638 | -81.32868 | 91 ft | 12 kts | 359° |
| 2026-04-25 14:44 | 28.44721 | -81.32869 | 91 ft | 11 kts | 359° |
| 2026-04-25 14:44 | 28.44796 | -81.32861 | 91 ft | 9 kts | 31° |
| 2026-04-25 14:44 | 28.44813 | -81.32809 | 91 ft | 4 kts | 90° |
| 2026-04-25 14:45 | 28.44815 | -81.32765 | 91 ft | 8 kts | 88° |
| 2026-04-25 14:45 | 28.44801 | -81.32704 | 91 ft | 6 kts | 148° |
| 2026-04-25 14:45 | 28.44766 | -81.32697 | 91 ft | 0 kts | 180° |
| 2026-04-25 14:45 | 28.44764 | -81.32697 | 91 ft | 0 kts | 180° |
| 2026-04-25 14:46 | 28.44758 | -81.32697 | 91 ft | 4 kts | 180° |
| 2026-04-25 14:46 | 28.44524 | -81.32695 | 91 ft | 67 kts | 180° |
| 2026-04-25 14:47 | 28.43857 | -81.32687 | 91 ft | 125 kts | 180° |
| 2026-04-25 14:47 | 28.43535 | -81.32684 | 94 ft | 142 kts | 180° |
| 2026-04-25 14:47 | 28.41640 | -81.32641 | 557 ft | 177 kts | 175° |
| 2026-04-25 14:47 | 28.40374 | -81.32587 | 1091 ft | 187 kts | 185° |
| 2026-04-25 14:48 | 28.39067 | -81.32979 | 1538 ft | 203 kts | 202° |
| 2026-04-25 14:48 | 28.37872 | -81.33881 | 1991 ft | 219 kts | 230° |
| 2026-04-25 14:48 | 28.37269 | -81.35514 | 2432 ft | 237 kts | 265° |
| 2026-04-25 14:48 | 28.37552 | -81.37390 | 2994 ft | 251 kts | 293° |
| 2026-04-25 14:49 | 28.38588 | -81.39031 | 3499 ft | 267 kts | 322° |
| 2026-04-25 14:49 | 28.40295 | -81.39808 | 4213 ft | 272 kts | 356° |
| 2026-04-25 14:49 | 28.42172 | -81.39548 | 5007 ft | 274 kts | 15° |
| 2026-04-25 14:49 | 28.43987 | -81.38909 | 5794 ft | 276 kts | 17° |
| 2026-04-25 14:50 | 28.45840 | -81.38282 | 6602 ft | 279 kts | 15° |
| 2026-04-25 14:50 | 28.47708 | -81.37751 | 7466 ft | 278 kts | 12° |
| 2026-04-25 14:50 | 28.49603 | -81.37272 | 8298 ft | 280 kts | 11° |
| 2026-04-25 14:50 | 28.51486 | -81.36817 | 9141 ft | 282 kts | 10° |
| 2026-04-25 14:51 | 28.53403 | -81.36356 | 10016 ft | 283 kts | 10° |
| 2026-04-25 14:51 | 28.55375 | -81.35880 | 10604 ft | 296 kts | 10° |
| 2026-04-25 14:51 | 28.57411 | -81.35386 | 11153 ft | 309 kts | 9° |
| 2026-04-25 14:51 | 28.59575 | -81.34858 | 11656 ft | 324 kts | 10° |
| 2026-04-25 14:52 | 28.61838 | -81.34305 | 12120 ft | 340 kts | 10° |
| 2026-04-25 14:52 | 28.64200 | -81.33727 | 12572 ft | 355 kts | 10° |
| 2026-04-25 14:52 | 28.66664 | -81.33124 | 12987 ft | 371 kts | 10° |
| 2026-04-25 14:52 | 28.67517 | -81.32916 | 13122 ft | 376 kts | 10° |
| 2026-04-25 14:53 | 28.71829 | -81.31856 | 14402 ft | 384 kts | 10° |
| 2026-04-25 14:53 | 28.74455 | -81.31210 | 15147 ft | 389 kts | 10° |
| 2026-04-25 14:53 | 28.77124 | -81.30553 | 15884 ft | 395 kts | 9° |
| 2026-04-25 14:53 | 28.79820 | -81.29903 | 16654 ft | 399 kts | 8° |
| 2026-04-25 14:54 | 28.82546 | -81.29360 | 17390 ft | 402 kts | 5° |
| 2026-04-25 14:54 | 28.85359 | -81.29083 | 18049 ft | 406 kts | 359° |
| 2026-04-25 14:54 | 28.88204 | -81.29101 | 18862 ft | 407 kts | 355° |
| 2026-04-25 14:54 | 28.91006 | -81.29281 | 19613 ft | 409 kts | 354° |
| 2026-04-25 14:55 | 28.93839 | -81.29533 | 20296 ft | 413 kts | 353° |
| 2026-04-25 14:55 | 28.96744 | -81.29816 | 21025 ft | 415 kts | 353° |
| 2026-04-25 14:55 | 28.99629 | -81.30097 | 21689 ft | 419 kts | 353° |
| 2026-04-25 14:55 | 29.02529 | -81.30404 | 22274 ft | 424 kts | 353° |
| 2026-04-25 14:56 | 29.05490 | -81.30744 | 22923 ft | 427 kts | 353° |
| 2026-04-25 14:56 | 29.08434 | -81.31092 | 23473 ft | 431 kts | 353° |
| 2026-04-25 14:56 | 29.11461 | -81.31443 | 24038 ft | 436 kts | 354° |
| 2026-04-25 14:56 | 29.14500 | -81.31719 | 24634 ft | 440 kts | 355° |
| 2026-04-25 14:57 | 29.17557 | -81.31925 | 25243 ft | 442 kts | 356° |
| 2026-04-25 14:57 | 29.20624 | -81.32098 | 25724 ft | 447 kts | 356° |
| 2026-04-25 14:57 | 29.23731 | -81.32262 | 26291 ft | 450 kts | 357° |
| 2026-04-25 14:57 | 29.26895 | -81.32429 | 26799 ft | 454 kts | 357° |
| 2026-04-25 14:58 | 29.30044 | -81.32600 | 27277 ft | 457 kts | 357° |
| 2026-04-25 14:58 | 29.33273 | -81.32780 | 27823 ft | 459 kts | 357° |
| 2026-04-25 14:58 | 29.36415 | -81.32960 | 28605 ft | 455 kts | 357° |
| 2026-04-25 14:58 | 29.39583 | -81.33144 | 29372 ft | 451 kts | 357° |
| 2026-04-25 14:59 | 29.42697 | -81.33327 | 30014 ft | 450 kts | 357° |
| 2026-04-25 14:59 | 29.45830 | -81.33513 | 30599 ft | 449 kts | 357° |
| 2026-04-25 14:59 | 29.48926 | -81.33698 | 31145 ft | 448 kts | 357° |
| 2026-04-25 14:59 | 29.52038 | -81.33885 | 31678 ft | 448 kts | 356° |
| 2026-04-25 15:00 | 29.55134 | -81.34072 | 32225 ft | 446 kts | 356° |
| 2026-04-25 15:00 | 29.58251 | -81.34261 | 32763 ft | 445 kts | 356° |
| 2026-04-25 15:00 | 29.61367 | -81.34450 | 33279 ft | 443 kts | 356° |
| 2026-04-25 15:00 | 29.64436 | -81.34634 | 33801 ft | 442 kts | 356° |
| 2026-04-25 15:01 | 29.67506 | -81.34816 | 34401 ft | 440 kts | 356° |
| 2026-04-25 15:01 | 29.70573 | -81.34993 | 35009 ft | 437 kts | 356° |
| 2026-04-25 15:01 | 29.73601 | -81.35165 | 35543 ft | 436 kts | 356° |
| 2026-04-25 15:01 | 29.76636 | -81.35336 | 36068 ft | 434 kts | 356° |
| 2026-04-25 15:02 | 29.79670 | -81.35509 | 36537 ft | 433 kts | 356° |
| 2026-04-25 15:02 | 29.82653 | -81.35679 | 36951 ft | 433 kts | 356° |
| 2026-04-25 15:02 | 29.88752 | -81.36029 | 36964 ft | 438 kts | 356° |
| 2026-04-25 15:03 | 29.94800 | -81.36376 | 36967 ft | 433 kts | 356° |
| 2026-04-25 15:03 | 30.00818 | -81.36723 | 36966 ft | 434 kts | 356° |
| 2026-04-25 15:04 | 30.06843 | -81.37072 | 36964 ft | 434 kts | 356° |
| 2026-04-25 15:04 | 30.12889 | -81.37421 | 36964 ft | 433 kts | 356° |
| 2026-04-25 15:05 | 30.18906 | -81.37768 | 36963 ft | 433 kts | 356° |
| 2026-04-25 15:06 | 30.27917 | -81.38290 | 36961 ft | 433 kts | 356° |
| 2026-04-25 15:06 | 30.33964 | -81.38640 | 36961 ft | 433 kts | 356° |
| 2026-04-25 15:07 | 30.40005 | -81.38961 | 36958 ft | 432 kts | 356° |
| 2026-04-25 15:07 | 30.46029 | -81.39308 | 36960 ft | 433 kts | 356° |
| 2026-04-25 15:08 | 30.52056 | -81.39654 | 36955 ft | 431 kts | 356° |
| 2026-04-25 15:08 | 30.58035 | -81.39975 | 36953 ft | 431 kts | 356° |
| 2026-04-25 15:09 | 30.64044 | -81.40295 | 36955 ft | 432 kts | 356° |
| 2026-04-25 15:09 | 30.73055 | -81.40771 | 36956 ft | 432 kts | 356° |
| 2026-04-25 15:10 | 30.79071 | -81.41087 | 36951 ft | 432 kts | 356° |
| 2026-04-25 15:11 | 30.88105 | -81.41568 | 36953 ft | 432 kts | 356° |
| 2026-04-25 15:11 | 30.94079 | -81.41886 | 36953 ft | 431 kts | 356° |
| 2026-04-25 15:12 | 31.03101 | -81.42368 | 36961 ft | 432 kts | 356° |
| 2026-04-25 15:12 | 31.07100 | -81.42583 | 36961 ft | 432 kts | 356° |
| 2026-04-25 15:13 | 31.18163 | -81.43174 | 36957 ft | 433 kts | 356° |
| 2026-04-25 15:14 | 31.24218 | -81.43111 | 36949 ft | 434 kts | 6° |
| 2026-04-25 15:14 | 31.30082 | -81.41123 | 36952 ft | 438 kts | 20° |
| 2026-04-25 15:15 | 31.35640 | -81.38190 | 36945 ft | 440 kts | 23° |
| 2026-04-25 15:15 | 31.41174 | -81.35087 | 36938 ft | 439 kts | 23° |
| 2026-04-25 15:16 | 31.46722 | -81.31993 | 36937 ft | 441 kts | 23° |
| 2026-04-25 15:16 | 31.55107 | -81.27385 | 36932 ft | 441 kts | 22° |
| 2026-04-25 15:17 | 31.63447 | -81.22832 | 36925 ft | 440 kts | 22° |
| 2026-04-25 15:18 | 31.69002 | -81.19797 | 36922 ft | 440 kts | 22° |
| 2026-04-25 15:18 | 31.77368 | -81.15220 | 36924 ft | 440 kts | 22° |
| 2026-04-25 15:19 | 31.81120 | -81.13166 | 36928 ft | 441 kts | 22° |
| 2026-04-25 15:19 | 31.88545 | -81.09092 | 36928 ft | 441 kts | 22° |
| 2026-04-25 15:20 | 31.94102 | -81.06037 | 36931 ft | 442 kts | 22° |
| 2026-04-25 15:20 | 31.99666 | -81.02979 | 36934 ft | 441 kts | 22° |
| 2026-04-25 15:21 | 32.05265 | -80.99873 | 36930 ft | 441 kts | 22° |
| 2026-04-25 15:21 | 32.10817 | -80.96761 | 36930 ft | 442 kts | 23° |
| 2026-04-25 15:22 | 32.16378 | -80.93641 | 36929 ft | 442 kts | 23° |
| 2026-04-25 15:22 | 32.21910 | -80.90535 | 36933 ft | 441 kts | 23° |
| 2026-04-25 15:23 | 32.27513 | -80.87389 | 36927 ft | 442 kts | 23° |
| 2026-04-25 15:23 | 32.33095 | -80.84250 | 36927 ft | 442 kts | 23° |
| 2026-04-25 15:24 | 32.38656 | -80.81117 | 36930 ft | 442 kts | 23° |
| 2026-04-25 15:24 | 32.42354 | -80.79031 | 36929 ft | 442 kts | 23° |
| 2026-04-25 15:25 | 32.49781 | -80.74833 | 36929 ft | 442 kts | 23° |
| 2026-04-25 15:25 | 32.55324 | -80.71697 | 36925 ft | 442 kts | 23° |
| 2026-04-25 15:26 | 32.60889 | -80.68545 | 36923 ft | 442 kts | 23° |
| 2026-04-25 15:26 | 32.66462 | -80.65385 | 36919 ft | 442 kts | 23° |
| 2026-04-25 15:27 | 32.72053 | -80.62208 | 36920 ft | 442 kts | 23° |
| 2026-04-25 15:28 | 32.80346 | -80.57313 | 36920 ft | 443 kts | 24° |
| 2026-04-25 15:28 | 32.85844 | -80.54024 | 36921 ft | 443 kts | 24° |
| 2026-04-25 15:29 | 32.91376 | -80.50723 | 36917 ft | 443 kts | 24° |
| 2026-04-25 15:29 | 32.96870 | -80.47447 | 36913 ft | 444 kts | 24° |
| 2026-04-25 15:30 | 33.02408 | -80.44141 | 36916 ft | 443 kts | 24° |
| 2026-04-25 15:30 | 33.07954 | -80.40826 | 36917 ft | 445 kts | 24° |
| 2026-04-25 15:31 | 33.13532 | -80.37485 | 36908 ft | 444 kts | 24° |
| 2026-04-25 15:31 | 33.19048 | -80.34173 | 36911 ft | 445 kts | 25° |
| 2026-04-25 15:32 | 33.24585 | -80.30850 | 36909 ft | 445 kts | 25° |
| 2026-04-25 15:32 | 33.30132 | -80.27521 | 36907 ft | 445 kts | 24° |
| 2026-04-25 15:33 | 33.38453 | -80.22515 | 36906 ft | 446 kts | 24° |
| 2026-04-25 15:33 | 33.44004 | -80.19160 | 36907 ft | 446 kts | 25° |
| 2026-04-25 15:34 | 33.49585 | -80.15788 | 36909 ft | 446 kts | 25° |
| 2026-04-25 15:34 | 33.53276 | -80.13551 | 36909 ft | 447 kts | 25° |
| 2026-04-25 15:35 | 33.63502 | -80.07359 | 36911 ft | 447 kts | 25° |
| 2026-04-25 15:36 | 33.71852 | -80.02289 | 36910 ft | 448 kts | 25° |
| 2026-04-25 15:36 | 33.77416 | -79.98900 | 36908 ft | 447 kts | 25° |
| 2026-04-25 15:37 | 33.82983 | -79.95500 | 36913 ft | 448 kts | 25° |
| 2026-04-25 15:37 | 33.88545 | -79.92109 | 36915 ft | 448 kts | 25° |
| 2026-04-25 15:38 | 33.94116 | -79.88716 | 36913 ft | 449 kts | 25° |
| 2026-04-25 15:38 | 33.99704 | -79.85301 | 36912 ft | 449 kts | 25° |
| 2026-04-25 15:39 | 34.05269 | -79.81892 | 36916 ft | 449 kts | 25° |
| 2026-04-25 15:39 | 34.10857 | -79.78461 | 36914 ft | 449 kts | 25° |
| 2026-04-25 15:40 | 34.14607 | -79.76157 | 36910 ft | 450 kts | 25° |
| 2026-04-25 15:40 | 34.22015 | -79.71599 | 36908 ft | 450 kts | 25° |
| 2026-04-25 15:41 | 34.27605 | -79.68153 | 36909 ft | 450 kts | 25° |
| 2026-04-25 15:41 | 34.33209 | -79.64689 | 36910 ft | 450 kts | 25° |
| 2026-04-25 15:42 | 34.38782 | -79.61241 | 36898 ft | 451 kts | 25° |
| 2026-04-25 15:42 | 34.44391 | -79.57769 | 36897 ft | 451 kts | 25° |
| 2026-04-25 15:43 | 34.49999 | -79.54291 | 36889 ft | 452 kts | 24° |
| 2026-04-25 15:43 | 34.55595 | -79.50813 | 36887 ft | 452 kts | 25° |
| 2026-04-25 15:44 | 34.61120 | -79.47207 | 36892 ft | 453 kts | 26° |
| 2026-04-25 15:44 | 34.66635 | -79.43473 | 36886 ft | 453 kts | 26° |
| 2026-04-25 15:45 | 34.72409 | -79.40462 | 36889 ft | 450 kts | 13° |
| 2026-04-25 15:45 | 34.76500 | -79.39326 | 36891 ft | 448 kts | 8° |
| 2026-04-25 15:46 | 34.84719 | -79.37704 | 36902 ft | 448 kts | 6° |
| 2026-04-25 15:46 | 34.90876 | -79.36516 | 36897 ft | 448 kts | 6° |
| 2026-04-25 15:47 | 34.97028 | -79.35256 | 36896 ft | 449 kts | 6° |
| 2026-04-25 15:47 | 35.03199 | -79.33957 | 36896 ft | 450 kts | 7° |
| 2026-04-25 15:48 | 35.09369 | -79.32641 | 36897 ft | 450 kts | 7° |
| 2026-04-25 15:48 | 35.15533 | -79.31323 | 36897 ft | 450 kts | 7° |
| 2026-04-25 15:49 | 35.21693 | -79.29999 | 36895 ft | 451 kts | 7° |
| 2026-04-25 15:49 | 35.27889 | -79.28664 | 36896 ft | 450 kts | 7° |
| 2026-04-25 15:50 | 35.34098 | -79.27327 | 36896 ft | 450 kts | 7° |
| 2026-04-25 15:50 | 35.40296 | -79.25990 | 36888 ft | 451 kts | 7° |
| 2026-04-25 15:51 | 35.44440 | -79.25094 | 36887 ft | 451 kts | 7° |
| 2026-04-25 15:51 | 35.52753 | -79.23295 | 36883 ft | 452 kts | 7° |
| 2026-04-25 15:52 | 35.58941 | -79.21954 | 36882 ft | 452 kts | 7° |
| 2026-04-25 15:52 | 35.65163 | -79.20606 | 36881 ft | 453 kts | 7° |
| 2026-04-25 15:53 | 35.71328 | -79.19134 | 36878 ft | 455 kts | 11° |
| 2026-04-25 15:53 | 35.77182 | -79.15918 | 36880 ft | 464 kts | 31° |
| 2026-04-25 15:54 | 35.82351 | -79.11014 | 36869 ft | 468 kts | 37° |
| 2026-04-25 15:54 | 35.87313 | -79.05836 | 36870 ft | 468 kts | 38° |
| 2026-04-25 15:55 | 35.92277 | -79.00633 | 36864 ft | 462 kts | 37° |
| 2026-04-25 15:55 | 35.94705 | -78.98102 | 36390 ft | 457 kts | 37° |
| 2026-04-25 15:55 | 35.97150 | -78.95567 | 35361 ft | 462 kts | 37° |
| 2026-04-25 15:56 | 35.99619 | -78.93014 | 34223 ft | 469 kts | 37° |
| 2026-04-25 15:56 | 36.02151 | -78.90407 | 33116 ft | 476 kts | 37° |
| 2026-04-25 15:56 | 36.04684 | -78.87802 | 32147 ft | 480 kts | 37° |
| 2026-04-25 15:56 | 36.07243 | -78.85172 | 31204 ft | 482 kts | 37° |
| 2026-04-25 15:57 | 36.09813 | -78.82527 | 30303 ft | 484 kts | 37° |
| 2026-04-25 15:57 | 36.12379 | -78.79883 | 29423 ft | 484 kts | 37° |
| 2026-04-25 15:57 | 36.14975 | -78.77204 | 28972 ft | 476 kts | 37° |
| 2026-04-25 15:57 | 36.17519 | -78.74573 | 28880 ft | 472 kts | 37° |
| 2026-04-25 15:58 | 36.22626 | -78.69296 | 28867 ft | 491 kts | 37° |
| 2026-04-25 15:58 | 36.27887 | -78.63850 | 28861 ft | 490 kts | 37° |
| 2026-04-25 15:59 | 36.33114 | -78.58421 | 28862 ft | 490 kts | 37° |
| 2026-04-25 15:59 | 36.38343 | -78.53052 | 28869 ft | 488 kts | 36° |
| 2026-04-25 16:00 | 36.41982 | -78.49772 | 28864 ft | 487 kts | 29° |
| 2026-04-25 16:00 | 36.49980 | -78.44810 | 28864 ft | 482 kts | 19° |
| 2026-04-25 16:01 | 36.56221 | -78.41606 | 28860 ft | 484 kts | 19° |
| 2026-04-25 16:01 | 36.62442 | -78.38425 | 28859 ft | 484 kts | 19° |
| 2026-04-25 16:02 | 36.68644 | -78.35185 | 28860 ft | 484 kts | 19° |
| 2026-04-25 16:02 | 36.74851 | -78.31893 | 28865 ft | 486 kts | 20° |
| 2026-04-25 16:03 | 36.81073 | -78.28558 | 28865 ft | 485 kts | 20° |
| 2026-04-25 16:03 | 36.87268 | -78.25233 | 28866 ft | 486 kts | 20° |
| 2026-04-25 16:04 | 36.93471 | -78.21883 | 28862 ft | 487 kts | 20° |
| 2026-04-25 16:04 | 36.99667 | -78.18534 | 28860 ft | 486 kts | 20° |
| 2026-04-25 16:05 | 37.05905 | -78.15172 | 28863 ft | 487 kts | 20° |
| 2026-04-25 16:06 | 37.15209 | -78.10132 | 28866 ft | 486 kts | 20° |
| 2026-04-25 16:06 | 37.21424 | -78.06750 | 28862 ft | 487 kts | 20° |
| 2026-04-25 16:07 | 37.27606 | -78.03371 | 28867 ft | 486 kts | 20° |
| 2026-04-25 16:07 | 37.33818 | -77.99985 | 28873 ft | 486 kts | 20° |
| 2026-04-25 16:08 | 37.40004 | -77.96611 | 28869 ft | 488 kts | 20° |
| 2026-04-25 16:08 | 37.46264 | -77.93188 | 28873 ft | 489 kts | 20° |
| 2026-04-25 16:09 | 37.52495 | -77.89797 | 28873 ft | 487 kts | 20° |
| 2026-04-25 16:09 | 37.58648 | -77.86370 | 28876 ft | 487 kts | 21° |
| 2026-04-25 16:09 | 37.61747 | -77.84600 | 28727 ft | 486 kts | 21° |
| 2026-04-25 16:10 | 37.64821 | -77.82836 | 27700 ft | 483 kts | 21° |
| 2026-04-25 16:10 | 37.67827 | -77.81118 | 26312 ft | 484 kts | 21° |
| 2026-04-25 16:10 | 37.70884 | -77.79399 | 24793 ft | 487 kts | 21° |
| 2026-04-25 16:10 | 37.73967 | -77.77683 | 23519 ft | 481 kts | 21° |
| 2026-04-25 16:11 | 37.76986 | -77.76006 | 22446 ft | 472 kts | 21° |
| 2026-04-25 16:11 | 37.79936 | -77.74368 | 21438 ft | 463 kts | 21° |
| 2026-04-25 16:11 | 37.82874 | -77.72736 | 20364 ft | 455 kts | 21° |
| 2026-04-25 16:11 | 37.85720 | -77.71155 | 19312 ft | 447 kts | 21° |
| 2026-04-25 16:12 | 37.88540 | -77.69585 | 18276 ft | 440 kts | 21° |
| 2026-04-25 16:12 | 37.91323 | -77.68034 | 17584 ft | 435 kts | 21° |
| 2026-04-25 16:12 | 37.94067 | -77.66505 | 16891 ft | 430 kts | 21° |
| 2026-04-25 16:12 | 37.94946 | -77.66015 | 16677 ft | 429 kts | 21° |
| 2026-04-25 16:13 | 37.99390 | -77.63528 | 16201 ft | 405 kts | 21° |
| 2026-04-25 16:13 | 38.01892 | -77.62124 | 15995 ft | 390 kts | 21° |
| 2026-04-25 16:13 | 38.04352 | -77.60742 | 15809 ft | 375 kts | 21° |
| 2026-04-25 16:13 | 38.06690 | -77.59405 | 15612 ft | 361 kts | 22° |
| 2026-04-25 16:14 | 38.08856 | -77.58070 | 15011 ft | 345 kts | 24° |
| 2026-04-25 16:14 | 38.11004 | -77.56687 | 13798 ft | 350 kts | 24° |
| 2026-04-25 16:14 | 38.13154 | -77.55296 | 12401 ft | 355 kts | 24° |
| 2026-04-25 16:14 | 38.15350 | -77.53887 | 11044 ft | 356 kts | 24° |
| 2026-04-25 16:15 | 38.17486 | -77.52525 | 10440 ft | 336 kts | 24° |
| 2026-04-25 16:15 | 38.19491 | -77.51242 | 10047 ft | 313 kts | 24° |
| 2026-04-25 16:15 | 38.21387 | -77.50033 | 9936 ft | 298 kts | 23° |
| 2026-04-25 16:15 | 38.23256 | -77.48859 | 9940 ft | 304 kts | 21° |
| 2026-04-25 16:16 | 38.25233 | -77.47883 | 9938 ft | 304 kts | 14° |
| 2026-04-25 16:16 | 38.27270 | -77.47124 | 9936 ft | 303 kts | 11° |
| 2026-04-25 16:16 | 38.29292 | -77.46450 | 9939 ft | 302 kts | 11° |
| 2026-04-25 16:16 | 38.31331 | -77.45776 | 9943 ft | 303 kts | 11° |
| 2026-04-25 16:17 | 38.33362 | -77.45087 | 9936 ft | 302 kts | 11° |
| 2026-04-25 16:17 | 38.35389 | -77.44381 | 9688 ft | 298 kts | 12° |
| 2026-04-25 16:17 | 38.37369 | -77.43684 | 9329 ft | 296 kts | 12° |
| 2026-04-25 16:17 | 38.39353 | -77.42983 | 8956 ft | 295 kts | 12° |
| 2026-04-25 16:18 | 38.41334 | -77.42283 | 8579 ft | 293 kts | 12° |
| 2026-04-25 16:18 | 38.41974 | -77.42055 | 8458 ft | 293 kts | 12° |
| 2026-04-25 16:18 | 38.45250 | -77.40891 | 7835 ft | 290 kts | 12° |
| 2026-04-25 16:18 | 38.47196 | -77.40208 | 7465 ft | 289 kts | 12° |
| 2026-04-25 16:19 | 38.49107 | -77.39539 | 7100 ft | 287 kts | 12° |
| 2026-04-25 16:19 | 38.51011 | -77.38886 | 6948 ft | 280 kts | 12° |
| 2026-04-25 16:19 | 38.52898 | -77.38281 | 6954 ft | 281 kts | 11° |
| 2026-04-25 16:20 | 38.56820 | -77.37060 | 6329 ft | 296 kts | 11° |
| 2026-04-25 16:20 | 38.58833 | -77.36513 | 5978 ft | 291 kts | 6° |
| 2026-04-25 16:20 | 38.62721 | -77.36234 | 5944 ft | 275 kts | 358° |
| 2026-04-25 16:21 | 38.64662 | -77.36208 | 5951 ft | 279 kts | 358° |
| 2026-04-25 16:21 | 38.66577 | -77.36166 | 5947 ft | 274 kts | 359° |
| 2026-04-25 16:21 | 38.68456 | -77.36104 | 5808 ft | 265 kts | 359° |
| 2026-04-25 16:21 | 38.70304 | -77.36037 | 5365 ft | 268 kts | 360° |
| 2026-04-25 16:22 | 38.72171 | -77.35974 | 4983 ft | 269 kts | 0° |
| 2026-04-25 16:22 | 38.74044 | -77.35913 | 4623 ft | 268 kts | 1° |
| 2026-04-25 16:22 | 38.75891 | -77.35850 | 4278 ft | 267 kts | 2° |
| 2026-04-25 16:22 | 38.77755 | -77.35786 | 3975 ft | 265 kts | 2° |
| 2026-04-25 16:23 | 38.79597 | -77.35722 | 3966 ft | 268 kts | 2° |
| 2026-04-25 16:23 | 38.81497 | -77.35653 | 3957 ft | 273 kts | 2° |
| 2026-04-25 16:23 | 38.83378 | -77.35586 | 3961 ft | 274 kts | 2° |
| 2026-04-25 16:23 | 38.85290 | -77.35518 | 3961 ft | 273 kts | 2° |
| 2026-04-25 16:24 | 38.87190 | -77.35450 | 3964 ft | 274 kts | 2° |
| 2026-04-25 16:24 | 38.89112 | -77.35381 | 3964 ft | 274 kts | 2° |
| 2026-04-25 16:24 | 38.91010 | -77.35311 | 3966 ft | 274 kts | 2° |
| 2026-04-25 16:24 | 38.92926 | -77.35241 | 3964 ft | 274 kts | 2° |
| 2026-04-25 16:25 | 38.94818 | -77.35171 | 3969 ft | 275 kts | 3° |
| 2026-04-25 16:25 | 38.95466 | -77.35148 | 3971 ft | 276 kts | 3° |
| 2026-04-25 16:25 | 38.98660 | -77.35038 | 3968 ft | 275 kts | 3° |
| 2026-04-25 16:25 | 39.00593 | -77.34972 | 3971 ft | 275 kts | 4° |
| 2026-04-25 16:26 | 39.02493 | -77.34892 | 3967 ft | 275 kts | 3° |
| 2026-04-25 16:26 | 39.04421 | -77.34832 | 3981 ft | 276 kts | 3° |
| 2026-04-25 16:26 | 39.06353 | -77.34761 | 3970 ft | 276 kts | 3° |
| 2026-04-25 16:26 | 39.08268 | -77.34692 | 3975 ft | 276 kts | 3° |
| 2026-04-25 16:27 | 39.10189 | -77.34626 | 3976 ft | 276 kts | 3° |
| 2026-04-25 16:27 | 39.12095 | -77.34562 | 3963 ft | 272 kts | 3° |
| 2026-04-25 16:27 | 39.13972 | -77.34498 | 3614 ft | 272 kts | 4° |
| 2026-04-25 16:27 | 39.15863 | -77.34431 | 3182 ft | 273 kts | 5° |
| 2026-04-25 16:28 | 39.17754 | -77.34407 | 2844 ft | 272 kts | 358° |
| 2026-04-25 16:28 | 39.19559 | -77.35096 | 2485 ft | 274 kts | 330° |
| 2026-04-25 16:28 | 39.20937 | -77.36784 | 2152 ft | 272 kts | 301° |
| 2026-04-25 16:28 | 39.21504 | -77.39023 | 1987 ft | 264 kts | 271° |
| 2026-04-25 16:29 | 39.21164 | -77.41300 | 1992 ft | 263 kts | 241° |
| 2026-04-25 16:29 | 39.20006 | -77.43101 | 1979 ft | 255 kts | 212° |
| 2026-04-25 16:29 | 39.18439 | -77.43871 | 1968 ft | 232 kts | 181° |
| 2026-04-25 16:29 | 39.16926 | -77.43609 | 1989 ft | 218 kts | 163° |
| 2026-04-25 16:30 | 39.15416 | -77.43284 | 1977 ft | 218 kts | 174° |
| 2026-04-25 16:30 | 39.13896 | -77.43276 | 1984 ft | 220 kts | 179° |
| 2026-04-25 16:30 | 39.12353 | -77.43346 | 1980 ft | 220 kts | 179° |
| 2026-04-25 16:30 | 39.10816 | -77.43377 | 1981 ft | 221 kts | 178° |
| 2026-04-25 16:31 | 39.09284 | -77.43388 | 1975 ft | 219 kts | 178° |
| 2026-04-25 16:31 | 39.07801 | -77.43411 | 1967 ft | 208 kts | 178° |
| 2026-04-25 16:31 | 39.06370 | -77.43436 | 1976 ft | 202 kts | 178° |
| 2026-04-25 16:31 | 39.04966 | -77.43456 | 1981 ft | 202 kts | 177° |
| 2026-04-25 16:32 | 39.03586 | -77.43475 | 1947 ft | 193 kts | 178° |
| 2026-04-25 16:32 | 39.02288 | -77.43497 | 1667 ft | 181 kts | 178° |
| 2026-04-25 16:32 | 39.01069 | -77.43516 | 1416 ft | 165 kts | 177° |
| 2026-04-25 16:32 | 38.99987 | -77.43534 | 1204 ft | 145 kts | 177° |
| 2026-04-25 16:33 | 38.99010 | -77.43546 | 984 ft | 137 kts | 177° |
| 2026-04-25 16:33 | 38.98067 | -77.43559 | 820 ft | 135 kts | 177° |
| 2026-04-25 16:33 | 38.97129 | -77.43571 | 640 ft | 135 kts | 177° |
| 2026-04-25 16:33 | 38.96172 | -77.43591 | 488 ft | 138 kts | 178° |
| 2026-04-25 16:34 | 38.95221 | -77.43604 | 301 ft | 136 kts | 177° |
| 2026-04-25 16:34 | 38.94397 | -77.43614 | 305 ft | 88 kts | 180° |
| 2026-04-25 16:34 | 38.93952 | -77.43620 | 309 ft | 49 kts | 179° |
| 2026-04-25 16:34 | 38.93670 | -77.43626 | 312 ft | 35 kts | 181° |
| 2026-04-25 16:35 | 38.93450 | -77.43694 | 311 ft | 26 kts | 214° |
| 2026-04-25 16:35 | 38.93371 | -77.43757 | 309 ft | 9 kts | 210° |
| 2026-04-25 16:35 | 38.93348 | -77.43776 | 309 ft | 0 kts | 213° |
| 2026-04-25 16:38 | 38.93344 | -77.43780 | 309 ft | 3 kts | 213° |
| 2026-04-25 16:38 | 38.93296 | -77.43838 | 308 ft | 12 kts | 265° |
| 2026-04-25 16:38 | 38.93325 | -77.43945 | 305 ft | 13 kts | 286° |
| 2026-04-25 16:39 | 38.93392 | -77.43992 | 305 ft | 11 kts | 1° |
| 2026-04-25 16:39 | 38.93470 | -77.43990 | 305 ft | 10 kts | 1° |
| 2026-04-25 16:39 | 38.93546 | -77.43989 | 305 ft | 11 kts | 1° |
| 2026-04-25 16:39 | 38.93644 | -77.43987 | 305 ft | 16 kts | 1° |
| 2026-04-25 16:40 | 38.93756 | -77.43986 | 305 ft | 16 kts | 1° |
| 2026-04-25 16:40 | 38.93868 | -77.43985 | 305 ft | 15 kts | 0° |
| 2026-04-25 16:40 | 38.93973 | -77.43983 | 305 ft | 15 kts | 0° |
| 2026-04-25 16:40 | 38.94019 | -77.43982 | 305 ft | 0 kts | 1° |
| 2026-04-25 16:45 | 38.94065 | -77.43982 | 305 ft | 12 kts | 357° |
| 2026-04-25 16:46 | 38.94104 | -77.44064 | 304 ft | 13 kts | 270° |
| 2026-04-25 16:46 | 38.94105 | -77.44213 | 303 ft | 20 kts | 271° |
| 2026-04-25 16:46 | 38.94107 | -77.44421 | 301 ft | 24 kts | 271° |
| 2026-04-25 16:46 | 38.94108 | -77.44492 | 301 ft | 24 kts | 271° |
| 2026-04-25 16:47 | 38.94111 | -77.44865 | 298 ft | 25 kts | 271° |
| 2026-04-25 16:47 | 38.94112 | -77.45017 | 297 ft | 5 kts | 266° |
| 2026-04-25 16:47 | 38.94113 | -77.45071 | 297 ft | 9 kts | 272° |
| 2026-04-25 16:47 | 38.94114 | -77.45195 | 296 ft | 15 kts | 271° |
| 2026-04-25 16:48 | 38.94115 | -77.45336 | 295 ft | 16 kts | 271° |
| 2026-04-25 16:48 | 38.94141 | -77.45425 | 295 ft | 10 kts | 1° |
| 2026-04-25 16:48 | 38.94223 | -77.45412 | 295 ft | 10 kts | 360° |
| 2026-04-25 16:48 | 38.94286 | -77.45412 | 295 ft | 7 kts | 1° |
| 2026-04-25 16:49 | 38.94296 | -77.45412 | 295 ft | 0 kts | 1° |